createdAt,value
2018-06-09T00:00:50.266Z,1006.54
2018-06-09T00:01:50.253Z,1006.57
2018-06-09T00:02:50.247Z,1006.57
2018-06-09T00:03:50.242Z,1006.56
2018-06-09T00:04:50.242Z,1006.58
2018-06-09T00:05:50.242Z,1006.59
2018-06-09T00:06:50.239Z,1006.54
2018-06-09T00:07:50.232Z,1006.57
2018-06-09T00:08:50.233Z,1006.54
2018-06-09T00:09:50.214Z,1006.53
2018-06-09T00:10:50.218Z,1006.53
2018-06-09T00:11:50.213Z,1006.51
2018-06-09T00:12:50.208Z,1006.53
2018-06-09T00:13:50.201Z,1006.53
2018-06-09T00:14:50.198Z,1006.53
2018-06-09T00:15:50.198Z,1006.56
2018-06-09T00:16:50.197Z,1006.56
2018-06-09T00:17:50.191Z,1006.55
2018-06-09T00:18:50.178Z,1006.56
2018-06-09T00:19:50.177Z,1006.53
2018-06-09T00:20:50.174Z,1006.51
2018-06-09T00:21:50.166Z,1006.53
2018-06-09T00:22:50.176Z,1006.53
2018-06-09T00:23:50.160Z,1006.55
2018-06-09T00:24:50.159Z,1006.53
2018-06-09T00:25:50.152Z,1006.52
2018-06-09T00:26:50.149Z,1006.53
2018-06-09T00:27:50.152Z,1006.50
2018-06-09T00:28:50.142Z,1006.53
2018-06-09T00:29:50.134Z,1006.51
2018-06-09T00:30:50.128Z,1006.51
2018-06-09T00:31:50.131Z,1006.50
2018-06-09T00:32:50.899Z,1006.48
2018-06-09T00:33:50.122Z,1006.50
2018-06-09T00:34:50.117Z,1006.46
2018-06-09T00:35:50.114Z,1006.43
2018-06-09T00:36:50.109Z,1006.44
2018-06-09T00:37:50.098Z,1006.42
2018-06-09T00:38:50.095Z,1006.44
2018-06-09T00:39:50.091Z,1006.44
2018-06-09T00:40:50.091Z,1006.44
2018-06-09T00:41:50.082Z,1006.45
2018-06-09T00:42:50.078Z,1006.44
2018-06-09T00:43:50.076Z,1006.41
2018-06-09T00:44:50.071Z,1006.40
2018-06-09T00:45:50.070Z,1006.40
2018-06-09T00:46:50.068Z,1006.36
2018-06-09T00:47:50.051Z,1006.34
2018-06-09T00:48:50.053Z,1006.34
2018-06-09T00:49:50.051Z,1006.33
2018-06-09T00:50:50.046Z,1006.35
2018-06-09T00:51:50.053Z,1006.35
2018-06-09T00:52:50.036Z,1006.33
2018-06-09T00:53:50.032Z,1006.34
2018-06-09T00:54:50.029Z,1006.34
2018-06-09T00:55:50.018Z,1006.33
2018-06-09T00:56:50.027Z,1006.32
2018-06-09T00:57:50.011Z,1006.30
2018-06-09T00:58:50.008Z,1006.32
2018-06-09T00:59:50.007Z,1006.29
2018-06-09T01:00:50.001Z,1006.28
2018-06-09T01:01:49.996Z,1006.29
2018-06-09T01:02:49.991Z,1006.29
2018-06-09T01:03:49.990Z,1006.31
2018-06-09T01:04:49.981Z,1006.30
2018-06-09T01:05:49.977Z,1006.29
2018-06-09T01:06:49.971Z,1006.34
2018-06-09T01:07:49.973Z,1006.38
2018-06-09T01:08:49.963Z,1006.37
2018-06-09T01:09:49.969Z,1006.38
2018-06-09T01:10:49.965Z,1006.37
2018-06-09T01:11:49.949Z,1006.37
2018-06-09T01:12:49.956Z,1006.30
2018-06-09T01:13:49.943Z,1006.35
2018-06-09T01:14:49.939Z,1006.37
2018-06-09T01:15:49.938Z,1006.32
2018-06-09T01:16:49.927Z,1006.35
2018-06-09T01:17:49.924Z,1006.34
2018-06-09T01:18:49.926Z,1006.37
2018-06-09T01:19:49.919Z,1006.38
2018-06-09T01:20:49.915Z,1006.40
2018-06-09T01:21:49.915Z,1006.40
2018-06-09T01:22:49.899Z,1006.44
2018-06-09T01:23:49.897Z,1006.42
2018-06-09T01:24:49.894Z,1006.41
2018-06-09T01:25:49.890Z,1006.39
2018-06-09T01:26:49.890Z,1006.40
2018-06-09T01:27:49.882Z,1006.42
2018-06-09T01:28:49.876Z,1006.40
2018-06-09T01:29:49.876Z,1006.44
2018-06-09T01:30:49.871Z,1006.44
2018-06-09T01:31:49.860Z,1006.43
2018-06-09T01:32:49.857Z,1006.44
2018-06-09T01:33:49.859Z,1006.43
2018-06-09T01:34:49.852Z,1006.43
2018-06-09T01:35:49.846Z,1006.42
2018-06-09T01:36:49.841Z,1006.42
2018-06-09T01:37:49.837Z,1006.43
2018-06-09T01:38:49.841Z,1006.41
2018-06-09T01:39:49.830Z,1006.39
2018-06-09T01:40:49.820Z,1006.40
2018-06-09T01:41:49.811Z,1006.36
2018-06-09T01:42:49.817Z,1006.36
2018-06-09T01:43:49.810Z,1006.36
2018-06-09T01:44:49.803Z,1006.34
2018-06-09T01:45:49.796Z,1006.33
2018-06-09T01:46:49.798Z,1006.35
2018-06-09T01:47:49.791Z,1006.35
2018-06-09T01:48:49.791Z,1006.32
2018-06-09T01:49:49.776Z,1006.38
2018-06-09T01:50:49.775Z,1006.40
2018-06-09T01:51:49.768Z,1006.38
2018-06-09T01:52:49.770Z,1006.43
2018-06-09T01:53:49.764Z,1006.43
2018-06-09T01:54:49.758Z,1006.47
2018-06-09T01:55:49.759Z,1006.45
2018-06-09T01:56:49.752Z,1006.42
2018-06-09T01:57:49.746Z,1006.43
2018-06-09T01:58:49.739Z,1006.43
2018-06-09T01:59:49.736Z,1006.42
2018-06-09T02:00:49.728Z,1006.38
2018-06-09T02:01:49.771Z,1006.39
2018-06-09T02:02:49.723Z,1006.43
2018-06-09T02:03:49.720Z,1006.41
2018-06-09T02:04:49.714Z,1006.41
2018-06-09T02:05:49.708Z,1006.39
2018-06-09T02:06:49.707Z,1006.37
2018-06-09T02:07:49.701Z,1006.40
2018-06-09T02:08:49.699Z,1006.41
2018-06-09T02:09:49.692Z,1006.41
2018-06-09T02:10:49.686Z,1006.37
2018-06-09T02:11:49.685Z,1006.41
2018-06-09T02:12:49.721Z,1006.43
2018-06-09T02:13:49.670Z,1006.39
2018-06-09T02:14:49.668Z,1006.37
2018-06-09T02:15:49.664Z,1006.38
2018-06-09T02:16:49.663Z,1006.38
2018-06-09T02:17:49.656Z,1006.37
2018-06-09T02:18:49.652Z,1006.36
2018-06-09T02:19:49.644Z,1006.35
2018-06-09T02:20:49.640Z,1006.33
2018-06-09T02:21:49.640Z,1006.31
2018-06-09T02:22:49.635Z,1006.29
2018-06-09T02:23:49.630Z,1006.30
2018-06-09T02:24:49.626Z,1006.27
2018-06-09T02:25:49.617Z,1006.26
2018-06-09T02:26:49.620Z,1006.23
2018-06-09T02:27:49.611Z,1006.25
2018-06-09T02:28:49.607Z,1006.22
2018-06-09T02:29:49.600Z,1006.22
2018-06-09T02:30:49.599Z,1006.21
2018-06-09T02:31:49.595Z,1006.26
2018-06-09T02:32:49.589Z,1006.26
2018-06-09T02:33:49.582Z,1006.30
2018-06-09T02:34:49.575Z,1006.27
2018-06-09T02:35:49.577Z,1006.38
2018-06-09T02:36:49.572Z,1006.36
2018-06-09T02:37:49.582Z,1006.36
2018-06-09T02:38:49.561Z,1006.37
2018-06-09T02:39:49.556Z,1006.38
2018-06-09T02:40:49.554Z,1006.36
2018-06-09T02:41:49.544Z,1006.32
2018-06-09T02:42:49.545Z,1006.27
2018-06-09T02:43:49.539Z,1006.28
2018-06-09T02:44:49.531Z,1006.23
2018-06-09T02:45:49.529Z,1006.21
2018-06-09T02:46:49.546Z,1006.20
2018-06-09T02:47:49.518Z,1006.22
2018-06-09T02:48:49.517Z,1006.16
2018-06-09T02:49:49.507Z,1006.13
2018-06-09T02:50:49.506Z,1006.15
2018-06-09T02:51:49.499Z,1006.09
2018-06-09T02:52:49.497Z,1006.08
2018-06-09T02:53:49.495Z,1006.06
2018-06-09T02:54:49.481Z,1006.12
2018-06-09T02:55:49.481Z,1006.12
2018-06-09T02:56:49.476Z,1006.15
2018-06-09T02:57:49.476Z,1006.20
2018-06-09T02:58:49.467Z,1006.24
2018-06-09T02:59:49.459Z,1006.29
2018-06-09T03:00:49.456Z,1006.33
2018-06-09T03:01:49.448Z,1006.33
2018-06-09T03:02:49.444Z,1006.35
2018-06-09T03:03:49.440Z,1006.29
2018-06-09T03:04:49.433Z,1006.32
2018-06-09T03:05:49.431Z,1006.31
2018-06-09T03:06:49.423Z,1006.29
2018-06-09T03:07:49.421Z,1006.29
2018-06-09T03:08:49.412Z,1006.25
2018-06-09T03:09:49.405Z,1006.27
2018-06-09T03:10:49.399Z,1006.22
2018-06-09T03:11:49.392Z,1006.26
2018-06-09T03:12:49.397Z,1006.26
2018-06-09T03:13:49.389Z,1006.26
2018-06-09T03:14:49.383Z,1006.32
2018-06-09T03:15:49.373Z,1006.30
2018-06-09T03:16:49.368Z,1006.35
2018-06-09T03:17:49.365Z,1006.39
2018-06-09T03:18:49.358Z,1006.37
2018-06-09T03:19:49.355Z,1006.40
2018-06-09T03:20:49.356Z,1006.38
2018-06-09T03:21:49.342Z,1006.37
2018-06-09T03:22:49.336Z,1006.38
2018-06-09T03:23:49.329Z,1006.42
2018-06-09T03:24:49.330Z,1006.41
2018-06-09T03:25:49.322Z,1006.36
2018-06-09T03:26:49.313Z,1006.39
2018-06-09T03:27:49.315Z,1006.43
2018-06-09T03:28:49.309Z,1006.46
2018-06-09T03:29:49.298Z,1006.43
2018-06-09T03:30:49.291Z,1006.40
2018-06-09T03:31:49.290Z,1006.38
2018-06-09T03:32:49.281Z,1006.34
2018-06-09T03:33:49.277Z,1006.35
2018-06-09T03:34:49.270Z,1006.31
2018-06-09T03:35:49.266Z,1006.31
2018-06-09T03:36:49.264Z,1006.29
2018-06-09T03:37:49.251Z,1006.32
2018-06-09T03:38:49.248Z,1006.30
2018-06-09T03:39:49.244Z,1006.30
2018-06-09T03:40:49.240Z,1006.33
2018-06-09T03:41:49.230Z,1006.33
2018-06-09T03:42:49.224Z,1006.36
2018-06-09T03:43:49.221Z,1006.39
2018-06-09T03:44:49.213Z,1006.38
2018-06-09T03:45:49.211Z,1006.37
2018-06-09T03:46:49.203Z,1006.39
2018-06-09T03:47:49.198Z,1006.38
2018-06-09T03:48:49.215Z,1006.38
2018-06-09T03:49:49.181Z,1006.41
2018-06-09T03:50:49.180Z,1006.41
2018-06-09T03:51:49.175Z,1006.42
2018-06-09T03:52:49.166Z,1006.48
2018-06-09T03:53:49.162Z,1006.45
2018-06-09T03:54:49.155Z,1006.45
2018-06-09T03:55:49.156Z,1006.48
2018-06-09T03:56:49.148Z,1006.46
2018-06-09T03:57:49.142Z,1006.50
2018-06-09T03:58:49.137Z,1006.47
2018-06-09T03:59:49.133Z,1006.48
2018-06-09T04:00:49.141Z,1006.48
2018-06-09T04:01:49.119Z,1006.44
2018-06-09T04:02:49.115Z,1006.39
2018-06-09T04:03:49.109Z,1006.34
2018-06-09T04:04:49.102Z,1006.34
2018-06-09T04:05:49.097Z,1006.33
2018-06-09T04:06:49.094Z,1006.32
2018-06-09T04:07:49.087Z,1006.30
2018-06-09T04:08:49.122Z,1006.31
2018-06-09T04:09:49.084Z,1006.31
2018-06-09T04:10:49.068Z,1006.35
2018-06-09T04:11:49.065Z,1006.36
2018-06-09T04:12:49.057Z,1006.44
2018-06-09T04:13:49.052Z,1006.39
2018-06-09T04:14:49.046Z,1006.42
2018-06-09T04:15:49.045Z,1006.38
2018-06-09T04:16:49.043Z,1006.41
2018-06-09T04:17:49.056Z,1006.38
2018-06-09T04:18:49.025Z,1006.41
2018-06-09T04:19:49.031Z,1006.41
2018-06-09T04:20:49.060Z,1006.42
2018-06-09T04:21:49.013Z,1006.43
2018-06-09T04:22:49.004Z,1006.44
2018-06-09T04:23:49.000Z,1006.40
2018-06-09T04:24:49.010Z,1006.43
2018-06-09T04:25:49.009Z,1006.44
2018-06-09T04:26:48.978Z,1006.42
2018-06-09T04:27:48.987Z,1006.40
2018-06-09T04:28:48.975Z,1006.43
2018-06-09T04:29:48.968Z,1006.40
2018-06-09T04:30:48.965Z,1006.36
2018-06-09T04:31:48.959Z,1006.40
2018-06-09T04:32:48.953Z,1006.36
2018-06-09T04:33:48.948Z,1006.36
2018-06-09T04:34:48.964Z,1006.40
2018-06-09T04:35:48.936Z,1006.32
2018-06-09T04:36:48.941Z,1006.36
2018-06-09T04:37:48.925Z,1006.36
2018-06-09T04:38:48.913Z,1006.38
2018-06-09T04:39:48.935Z,1006.37
2018-06-09T04:40:48.908Z,1006.36
2018-06-09T04:41:48.904Z,1006.36
2018-06-09T04:42:48.901Z,1006.39
2018-06-09T04:43:48.892Z,1006.35
2018-06-09T04:44:48.907Z,1006.33
2018-06-09T04:45:48.886Z,1006.37
2018-06-09T04:46:48.874Z,1006.35
2018-06-09T04:47:48.864Z,1006.36
2018-06-09T04:48:48.872Z,1006.36
2018-06-09T04:49:48.856Z,1006.34
2018-06-09T04:50:48.858Z,1006.35
2018-06-09T04:51:48.849Z,1006.33
2018-06-09T04:52:48.844Z,1006.34
2018-06-09T04:53:48.839Z,1006.37
2018-06-09T04:54:48.850Z,1006.37
2018-06-09T04:55:48.821Z,1006.39
2018-06-09T04:56:48.822Z,1006.40
2018-06-09T04:57:48.809Z,1006.40
2018-06-09T04:58:48.813Z,1006.37
2018-06-09T04:59:48.801Z,1006.38
2018-06-09T05:00:48.798Z,1006.38
2018-06-09T05:01:48.790Z,1006.35
2018-06-09T05:02:48.786Z,1006.32
2018-06-09T05:03:48.781Z,1006.28
2018-06-09T05:04:48.780Z,1006.30
2018-06-09T05:05:48.768Z,1006.27
2018-06-09T05:06:48.773Z,1006.30
2018-06-09T05:07:48.764Z,1006.33
2018-06-09T05:08:48.753Z,1006.30
2018-06-09T05:09:48.745Z,1006.33
2018-06-09T05:10:48.741Z,1006.31
2018-06-09T05:11:48.744Z,1006.29
2018-06-09T05:12:48.741Z,1006.27
2018-06-09T05:13:48.732Z,1006.26
2018-06-09T05:14:48.720Z,1006.30
2018-06-09T05:15:48.725Z,1006.29
2018-06-09T05:16:48.717Z,1006.29
2018-06-09T05:17:48.708Z,1006.27
2018-06-09T05:18:48.706Z,1006.28
2018-06-09T05:19:48.695Z,1006.28
2018-06-09T05:20:48.689Z,1006.27
2018-06-09T05:21:48.684Z,1006.29
2018-06-09T05:22:48.682Z,1006.26
2018-06-09T05:23:48.676Z,1006.30
2018-06-09T05:24:48.671Z,1006.25
2018-06-09T05:25:48.666Z,1006.25
2018-06-09T05:26:48.666Z,1006.30
2018-06-09T05:27:48.687Z,1006.30
2018-06-09T05:28:48.651Z,1006.27
2018-06-09T05:29:48.640Z,1006.28
2018-06-09T05:30:48.639Z,1006.25
2018-06-09T05:31:48.638Z,1006.23
2018-06-09T05:32:48.636Z,1006.21
2018-06-09T05:33:48.625Z,1006.24
2018-06-09T05:34:48.622Z,1006.30
2018-06-09T05:35:48.619Z,1006.27
2018-06-09T05:36:48.614Z,1006.30
2018-06-09T05:37:48.609Z,1006.30
2018-06-09T05:38:48.603Z,1006.32
2018-06-09T05:39:48.599Z,1006.32
2018-06-09T05:40:48.596Z,1006.30
2018-06-09T05:41:48.592Z,1006.28
2018-06-09T05:42:48.592Z,1006.24
2018-06-09T05:43:48.587Z,1006.28
2018-06-09T05:44:48.584Z,1006.26
2018-06-09T05:45:48.576Z,1006.23
2018-06-09T05:46:48.576Z,1006.24
2018-06-09T05:47:48.574Z,1006.26
2018-06-09T05:48:48.566Z,1006.24
2018-06-09T05:49:48.563Z,1006.25
2018-06-09T05:50:48.565Z,1006.26
2018-06-09T05:51:48.561Z,1006.24
2018-06-09T05:52:48.554Z,1006.27
2018-06-09T05:53:48.553Z,1006.30
2018-06-09T05:54:48.548Z,1006.34
2018-06-09T05:55:48.548Z,1006.33
2018-06-09T05:56:48.543Z,1006.37
2018-06-09T05:57:48.536Z,1006.36
2018-06-09T05:58:48.535Z,1006.39
2018-06-09T05:59:48.528Z,1006.40
2018-06-09T06:00:48.528Z,1006.43
2018-06-09T06:01:48.526Z,1006.41
2018-06-09T06:02:48.526Z,1006.45
2018-06-09T06:03:48.519Z,1006.50
2018-06-09T06:04:48.515Z,1006.49
2018-06-09T06:05:48.508Z,1006.51
2018-06-09T06:06:48.505Z,1006.55
2018-06-09T06:07:48.500Z,1006.55
2018-06-09T06:08:48.497Z,1006.57
2018-06-09T06:09:48.498Z,1006.62
2018-06-09T06:10:48.493Z,1006.58
2018-06-09T06:11:48.493Z,1006.59
2018-06-09T06:12:48.486Z,1006.58
2018-06-09T06:13:48.488Z,1006.59
2018-06-09T06:14:48.485Z,1006.61
2018-06-09T06:15:48.477Z,1006.60
2018-06-09T06:16:48.472Z,1006.64
2018-06-09T06:17:48.478Z,1006.66
2018-06-09T06:18:48.514Z,1006.71
2018-06-09T06:19:48.462Z,1006.66
2018-06-09T06:20:48.463Z,1006.72
2018-06-09T06:21:48.460Z,1006.72
2018-06-09T06:22:48.455Z,1006.70
2018-06-09T06:23:48.455Z,1006.71
2018-06-09T06:24:48.448Z,1006.71
2018-06-09T06:25:48.445Z,1006.70
2018-06-09T06:26:48.441Z,1006.67
2018-06-09T06:27:48.446Z,1006.66
2018-06-09T06:28:48.433Z,1006.67
2018-06-09T06:29:48.431Z,1006.66
2018-06-09T06:30:48.429Z,1006.63
2018-06-09T06:31:48.427Z,1006.64
2018-06-09T06:32:48.426Z,1006.62
2018-06-09T06:33:48.421Z,1006.63
2018-06-09T06:34:48.415Z,1006.65
2018-06-09T06:35:48.412Z,1006.63
2018-06-09T06:36:48.415Z,1006.66
2018-06-09T06:37:48.407Z,1006.63
2018-06-09T06:38:48.406Z,1006.64
2018-06-09T06:39:48.400Z,1006.64
2018-06-09T06:40:48.399Z,1006.64
2018-06-09T06:41:48.394Z,1006.65
2018-06-09T06:42:48.406Z,1006.68
2018-06-09T06:43:48.392Z,1006.64
2018-06-09T06:44:48.387Z,1006.64
2018-06-09T06:45:48.383Z,1006.60
2018-06-09T06:46:48.381Z,1006.64
2018-06-09T06:47:48.376Z,1006.65
2018-06-09T06:48:48.377Z,1006.64
2018-06-09T06:49:48.371Z,1006.63
2018-06-09T06:50:48.370Z,1006.63
2018-06-09T06:51:48.366Z,1006.64
2018-06-09T06:52:48.361Z,1006.68
2018-06-09T06:53:48.360Z,1006.65
2018-06-09T06:54:48.361Z,1006.63
2018-06-09T06:55:48.356Z,1006.60
2018-06-09T06:56:48.354Z,1006.62
2018-06-09T06:57:48.349Z,1006.61
2018-06-09T06:58:48.353Z,1006.62
2018-06-09T06:59:48.344Z,1006.67
2018-06-09T07:00:48.343Z,1006.62
2018-06-09T07:01:48.340Z,1006.66
2018-06-09T07:02:48.338Z,1006.64
2018-06-09T07:03:48.334Z,1006.68
2018-06-09T07:04:48.333Z,1006.68
2018-06-09T07:05:48.331Z,1006.70
2018-06-09T07:06:48.334Z,1006.71
2018-06-09T07:07:48.336Z,1006.69
2018-06-09T07:08:48.323Z,1006.73
2018-06-09T07:09:48.326Z,1006.74
2018-06-09T07:10:48.320Z,1006.73
2018-06-09T07:11:48.315Z,1006.75
2018-06-09T07:12:48.315Z,1006.77
2018-06-09T07:13:48.315Z,1006.77
2018-06-09T07:14:48.312Z,1006.78
2018-06-09T07:15:48.322Z,1006.80
2018-06-09T07:16:48.307Z,1006.85
2018-06-09T07:17:48.308Z,1006.81
2018-06-09T07:18:48.312Z,1006.83
2018-06-09T07:19:48.303Z,1006.89
2018-06-09T07:20:48.301Z,1006.89
2018-06-09T07:21:48.303Z,1006.87
2018-06-09T07:22:48.300Z,1006.83
2018-06-09T07:23:48.302Z,1006.86
2018-06-09T07:24:48.293Z,1006.86
2018-06-09T07:25:48.293Z,1006.84
2018-06-09T07:26:48.294Z,1006.82
2018-06-09T07:27:48.295Z,1006.86
2018-06-09T07:28:48.296Z,1006.84
2018-06-09T07:29:48.295Z,1006.84
2018-06-09T07:30:48.297Z,1006.84
2018-06-09T07:31:48.296Z,1006.87
2018-06-09T07:32:48.299Z,1006.88
2018-06-09T07:33:48.295Z,1006.87
2018-06-09T07:34:48.296Z,1006.88
2018-06-09T07:35:48.301Z,1006.83
2018-06-09T07:36:48.301Z,1006.81
2018-06-09T07:37:48.301Z,1006.80
2018-06-09T07:38:48.306Z,1006.80
2018-06-09T07:39:48.303Z,1006.81
2018-06-09T07:40:48.309Z,1006.79
2018-06-09T07:41:48.305Z,1006.77
2018-06-09T07:42:48.308Z,1006.73
2018-06-09T07:43:48.309Z,1006.76
2018-06-09T07:44:48.312Z,1006.76
2018-06-09T07:45:48.315Z,1006.79
2018-06-09T07:46:48.320Z,1006.76
2018-06-09T07:47:48.323Z,1006.75
2018-06-09T07:48:48.324Z,1006.76
2018-06-09T07:49:48.328Z,1006.73
2018-06-09T07:50:48.328Z,1006.72
2018-06-09T07:51:48.338Z,1006.74
2018-06-09T07:52:48.340Z,1006.72
2018-06-09T07:53:48.344Z,1006.69
2018-06-09T07:54:48.350Z,1006.63
2018-06-09T07:55:48.343Z,1006.61
2018-06-09T07:56:48.350Z,1006.67
2018-06-09T07:57:48.351Z,1006.69
2018-06-09T07:58:48.388Z,1006.72
2018-06-09T07:59:48.361Z,1006.75
2018-06-09T08:00:48.363Z,1006.77
2018-06-09T08:01:48.366Z,1006.79
2018-06-09T08:02:48.368Z,1006.80
2018-06-09T08:03:48.370Z,1006.87
2018-06-09T08:04:48.374Z,1006.88
2018-06-09T08:05:48.379Z,1006.88
2018-06-09T08:06:48.395Z,1006.90
2018-06-09T08:07:48.382Z,1006.93
2018-06-09T08:08:48.385Z,1006.90
2018-06-09T08:09:48.389Z,1006.95
2018-06-09T08:10:48.392Z,1006.96
2018-06-09T08:11:48.396Z,1007.02
2018-06-09T08:12:48.398Z,1007.02
2018-06-09T08:13:48.402Z,1007.00
2018-06-09T08:14:48.411Z,1007.03
2018-06-09T08:15:48.411Z,1007.06
2018-06-09T08:16:48.415Z,1007.07
2018-06-09T08:17:48.415Z,1007.09
2018-06-09T08:18:48.420Z,1007.06
2018-06-09T08:19:48.423Z,1007.11
2018-06-09T08:20:48.428Z,1007.06
2018-06-09T08:21:48.430Z,1007.10
2018-06-09T08:22:48.434Z,1007.09
2018-06-09T08:23:48.441Z,1007.10
2018-06-09T08:24:48.446Z,1007.05
2018-06-09T08:25:48.448Z,1007.05
2018-06-09T08:26:48.455Z,1007.02
2018-06-09T08:27:48.461Z,1007.01
2018-06-09T08:28:48.466Z,1007.03
2018-06-09T08:29:48.470Z,1006.97
2018-06-09T08:30:48.472Z,1006.97
2018-06-09T08:31:48.478Z,1006.96
2018-06-09T08:32:48.480Z,1006.95
2018-06-09T08:33:48.489Z,1006.91
2018-06-09T08:34:48.494Z,1006.90
2018-06-09T08:35:48.492Z,1006.90
2018-06-09T08:36:48.501Z,1006.83
2018-06-09T08:37:48.504Z,1006.82
2018-06-09T08:38:48.510Z,1006.84
2018-06-09T08:39:48.516Z,1006.87
2018-06-09T08:40:48.522Z,1006.88
2018-06-09T08:41:48.528Z,1006.85
2018-06-09T08:42:48.530Z,1006.86
2018-06-09T08:43:48.536Z,1006.89
2018-06-09T08:44:48.543Z,1006.92
2018-06-09T08:45:48.545Z,1006.94
2018-06-09T08:46:48.551Z,1006.90
2018-06-09T08:47:48.558Z,1006.89
2018-06-09T08:48:48.556Z,1006.92
2018-06-09T08:49:48.564Z,1006.92
2018-06-09T08:50:48.571Z,1006.95
2018-06-09T08:51:48.574Z,1006.95
2018-06-09T08:52:48.581Z,1006.91
2018-06-09T08:53:48.587Z,1006.94
2018-06-09T08:54:48.589Z,1006.93
2018-06-09T08:55:48.595Z,1006.93
2018-06-09T08:56:48.608Z,1006.91
2018-06-09T08:57:48.598Z,1006.89
2018-06-09T08:58:48.608Z,1006.89
2018-06-09T08:59:48.607Z,1006.89
2018-06-09T09:00:48.616Z,1006.90
2018-06-09T09:01:48.615Z,1006.92
2018-06-09T09:02:48.627Z,1006.90
2018-06-09T09:03:48.626Z,1006.88
2018-06-09T09:04:48.627Z,1006.88
2018-06-09T09:05:48.639Z,1006.88
2018-06-09T09:06:48.644Z,1006.84
2018-06-09T09:07:48.642Z,1006.86
2018-06-09T09:08:48.649Z,1006.84
2018-06-09T09:09:48.653Z,1006.82
2018-06-09T09:10:48.655Z,1006.83
2018-06-09T09:11:48.658Z,1006.82
2018-06-09T09:12:48.665Z,1006.83
2018-06-09T09:13:48.663Z,1006.83
2018-06-09T09:14:48.677Z,1006.82
2018-06-09T09:15:48.686Z,1006.82
2018-06-09T09:16:48.681Z,1006.85
2018-06-09T09:17:48.691Z,1006.85
2018-06-09T09:18:48.698Z,1006.85
2018-06-09T09:19:48.697Z,1006.90
2018-06-09T09:20:48.707Z,1006.88
2018-06-09T09:21:48.708Z,1006.85
2018-06-09T09:22:48.720Z,1006.86
2018-06-09T09:23:48.722Z,1006.85
2018-06-09T09:24:48.726Z,1006.84
2018-06-09T09:25:48.747Z,1006.85
2018-06-09T09:26:48.740Z,1006.90
2018-06-09T09:27:48.742Z,1006.85
2018-06-09T09:28:48.752Z,1006.83
2018-06-09T09:29:48.757Z,1006.84
2018-06-09T09:30:48.765Z,1006.88
2018-06-09T09:31:48.772Z,1006.87
2018-06-09T09:32:48.790Z,1006.91
2018-06-09T09:33:48.793Z,1006.92
2018-06-09T09:34:48.792Z,1006.90
2018-06-09T09:35:48.796Z,1006.94
2018-06-09T09:36:48.802Z,1006.93
2018-06-09T09:37:48.811Z,1006.92
2018-06-09T09:38:48.814Z,1006.86
2018-06-09T09:39:48.822Z,1006.91
2018-06-09T09:40:48.835Z,1006.94
2018-06-09T09:41:48.835Z,1006.97
2018-06-09T09:42:48.840Z,1006.97
2018-06-09T09:43:48.845Z,1006.97
2018-06-09T09:44:48.854Z,1006.93
2018-06-09T09:45:48.858Z,1006.92
2018-06-09T09:46:48.868Z,1006.94
2018-06-09T09:47:48.875Z,1006.89
2018-06-09T09:48:48.878Z,1006.88
2018-06-09T09:49:48.939Z,1006.85
2018-06-09T09:50:48.892Z,1006.83
2018-06-09T09:51:48.898Z,1006.81
2018-06-09T09:52:48.904Z,1006.83
2018-06-09T09:53:48.906Z,1006.82
2018-06-09T09:54:48.947Z,1006.81
2018-06-09T09:55:48.917Z,1006.82
2018-06-09T09:56:48.927Z,1006.82
2018-06-09T09:57:48.933Z,1006.84
2018-06-09T09:58:48.937Z,1006.85
2018-06-09T09:59:48.944Z,1006.84
2018-06-09T10:00:48.949Z,1006.85
2018-06-09T10:01:48.957Z,1006.81
2018-06-09T10:02:48.957Z,1006.86
2018-06-09T10:03:48.970Z,1006.83
2018-06-09T10:04:48.972Z,1006.83
2018-06-09T10:05:49.012Z,1006.86
2018-06-09T10:06:48.980Z,1006.82
2018-06-09T10:07:48.984Z,1006.81
2018-06-09T10:08:48.990Z,1006.84
2018-06-09T10:09:48.991Z,1006.86
2018-06-09T10:10:49.000Z,1006.83
2018-06-09T10:11:49.009Z,1006.80
2018-06-09T10:12:49.013Z,1006.84
2018-06-09T10:13:49.018Z,1006.82
2018-06-09T10:14:49.026Z,1006.77
2018-06-09T10:15:49.027Z,1006.83
2018-06-09T10:16:49.040Z,1006.81
2018-06-09T10:17:49.039Z,1006.82
2018-06-09T10:18:49.043Z,1006.82
2018-06-09T10:19:49.048Z,1006.85
2018-06-09T10:20:49.052Z,1006.82
2018-06-09T10:21:49.054Z,1006.85
2018-06-09T10:22:49.060Z,1006.87
2018-06-09T10:23:49.066Z,1006.83
2018-06-09T10:24:49.071Z,1006.80
2018-06-09T10:25:49.072Z,1006.79
2018-06-09T10:26:49.076Z,1006.80
2018-06-09T10:27:49.086Z,1006.80
2018-06-09T10:28:49.100Z,1006.79
2018-06-09T10:29:49.090Z,1006.78
2018-06-09T10:30:49.096Z,1006.76
2018-06-09T10:31:49.099Z,1006.78
2018-06-09T10:32:49.116Z,1006.76
2018-06-09T10:33:49.105Z,1006.78
2018-06-09T10:34:49.108Z,1006.82
2018-06-09T10:35:49.112Z,1006.83
2018-06-09T10:36:49.123Z,1006.79
2018-06-09T10:37:49.120Z,1006.79
2018-06-09T10:38:49.122Z,1006.86
2018-06-09T10:39:49.130Z,1006.78
2018-06-09T10:40:49.131Z,1006.79
2018-06-09T10:41:49.135Z,1006.74
2018-06-09T10:42:49.141Z,1006.78
2018-06-09T10:43:49.143Z,1006.76
2018-06-09T10:44:49.158Z,1006.74
2018-06-09T10:45:49.162Z,1006.77
2018-06-09T10:46:49.176Z,1006.78
2018-06-09T10:47:49.162Z,1006.72
2018-06-09T10:48:49.170Z,1006.72
2018-06-09T10:49:49.172Z,1006.72
2018-06-09T10:50:49.180Z,1006.72
2018-06-09T10:51:49.180Z,1006.71
2018-06-09T10:52:49.188Z,1006.68
2018-06-09T10:53:49.196Z,1006.67
2018-06-09T10:54:49.198Z,1006.67
2018-06-09T10:55:49.216Z,1006.68
2018-06-09T10:56:49.241Z,1006.68
2018-06-09T10:57:49.221Z,1006.64
2018-06-09T10:58:49.229Z,1006.64
2018-06-09T10:59:49.234Z,1006.60
2018-06-09T11:00:49.239Z,1006.59
2018-06-09T11:01:50.245Z,1006.59
2018-06-09T11:02:49.254Z,1006.57
2018-06-09T11:03:49.264Z,1006.60
2018-06-09T11:04:49.266Z,1006.61
2018-06-09T11:05:49.279Z,1006.60
2018-06-09T11:06:49.286Z,1006.60
2018-06-09T11:07:49.295Z,1006.61
2018-06-09T11:08:49.303Z,1006.60
2018-06-09T11:09:49.365Z,1006.58
2018-06-09T11:10:49.321Z,1006.64
2018-06-09T11:11:49.324Z,1006.61
2018-06-09T11:12:49.337Z,1006.62
2018-06-09T11:13:49.345Z,1006.63
2018-06-09T11:14:49.372Z,1006.61
2018-06-09T11:15:49.362Z,1006.66
2018-06-09T11:16:49.375Z,1006.59
2018-06-09T11:17:49.379Z,1006.60
2018-06-09T11:18:49.384Z,1006.57
2018-06-09T11:19:49.396Z,1006.60
2018-06-09T11:20:49.399Z,1006.55
2018-06-09T11:21:49.412Z,1006.56
2018-06-09T11:22:49.423Z,1006.57
2018-06-09T11:23:49.437Z,1006.59
2018-06-09T11:24:49.443Z,1006.54
2018-06-09T11:25:49.452Z,1006.57
2018-06-09T11:26:49.461Z,1006.53
2018-06-09T11:27:49.468Z,1006.53
2018-06-09T11:28:49.476Z,1006.52
2018-06-09T11:29:49.482Z,1006.53
2018-06-09T11:30:49.489Z,1006.54
2018-06-09T11:31:49.498Z,1006.56
2018-06-09T11:32:49.515Z,1006.56
2018-06-09T11:33:49.518Z,1006.50
2018-06-09T11:34:49.529Z,1006.46
2018-06-09T11:35:49.538Z,1006.49
2018-06-09T11:36:49.544Z,1006.50
2018-06-09T11:37:49.553Z,1006.49
2018-06-09T11:38:49.601Z,1006.43
2018-06-09T11:39:49.567Z,1006.47
2018-06-09T11:40:49.585Z,1006.41
2018-06-09T11:41:49.596Z,1006.43
2018-06-09T11:42:49.601Z,1006.43
2018-06-09T11:43:49.611Z,1006.40
2018-06-09T11:44:49.618Z,1006.42
2018-06-09T11:45:49.631Z,1006.44
2018-06-09T11:46:49.637Z,1006.43
2018-06-09T11:47:49.644Z,1006.46
2018-06-09T11:48:49.655Z,1006.40
2018-06-09T11:49:49.663Z,1006.43
2018-06-09T11:50:50.283Z,1006.42
2018-06-09T11:51:49.690Z,1006.40
2018-06-09T11:52:49.690Z,1006.40
2018-06-09T11:53:49.699Z,1006.33
2018-06-09T11:54:49.713Z,1006.32
2018-06-09T11:55:49.712Z,1006.29
2018-06-09T11:56:49.733Z,1006.25
2018-06-09T11:57:49.734Z,1006.26
2018-06-09T11:58:49.745Z,1006.22
2018-06-09T11:59:49.751Z,1006.23
2018-06-09T12:00:49.762Z,1006.19
2018-06-09T12:01:49.818Z,1006.18
2018-06-09T12:02:49.778Z,1006.16
2018-06-09T12:03:49.794Z,1006.14
2018-06-09T12:04:49.800Z,1006.16
2018-06-09T12:05:49.829Z,1006.21